Terminal Aerodrome Forecast
Issued by NWS Atlanta, GA

Home | Current Version | Previous Version | Text Only | Print | Product List | Glossary On
Versions: 1 2 3 4 5 6 7 8 9 10 11 12 13 14 15 16 17 18 19 20 21 22 23 24 25 26 27 28 29 30 31 32 33 34 35 36 37 38
000
FTUS42 KFFC 041938 AAA
TAFATL
TAF AMD
KATL 041938Z 0420/0524 09012G20KT 2SM -RADZ BR OVC005
      TEMPO 0420/0424 2SM -RADZ BR OVC004
     FM050000 06008KT 2SM -RADZ BR OVC003
     FM051500 04004KT 3SM -RA BR OVC005
     FM051800 06005KT 6SM BR OVC007
     FM052100 08006KT 4SM -RA BR OVC006=

USA.gov is the U.S. government's official web portal to all federal, state and local government web resources and services.